Fredrik Johansen

Olheiro-Chefe - Stromsgodset
4 Abr 2027
Domingo
Processo

Personalidade

Adaptabilidade (13) Ambição (10) Controvérsia (4) Lealdade (4) Pressão (7) Profissionalismo (15) Espírito Esportivo (7) Temperamento (10)

Perfil

Estilo de Treinamento Democrático
Licença Continental C
Determinação 10
Gestão de Pessoas 12
Motivação 6
Disciplina 10
Satisfação no Trabalho
82%
Fadiga
0%
Função Olheiro-Chefe
Salário 14.4K p/s
Contrato 14.03.2029

Desempenho

Comportamento Bom
Eficácia do Treinamento
37%
Desenvolvimento do Jogador
60%
Prevenção de Lesões
45%
Implementação Tática
60%

Eventos Recentes

Avaliou um jogador agora
Participou de uma reunião de recrutamento agora
Avaliou um jogador agora
Participou de uma reunião de recrutamento 7d atrás
Avaliou um jogador 7d atrás
Avaliou um jogador 7d atrás
Avaliou um jogador 7d atrás
Avaliou um jogador 7d atrás

Monitorando agora

70
Jogador Clube Status Habilidade Confiança Observado Última observação Último voto
Matty Stevens AFC Wimbledon Ativo 104 / 108 40% 4 03.04.2027 -
Jordan Roberts Stevenage Ativo 113 / 94 40% 2 03.04.2027 -
Lorenzo Di Stefano Torres Ativo 101 / 98 40% 1 31.03.2027 -
Harry Cornick AFC Wimbledon Ativo 93 / 120 40% 1 31.03.2027 -
Amur Kalmykov Spartak Kostroma Ativo 102 / 107 40% 2 30.03.2027 -
Rivaldo Ngcobo Free State Stars Ativo 109 / 94 40% 1 30.03.2027 -
Ebenezer Assifuah Great Olympics Ativo 85 / 97 40% 1 29.03.2027 -
Camillo Tavernelli Arezzo Ativo 119 / 111 40% 1 28.03.2027 -
Clinton N'jie Canon Yaounde Ativo 107 / 87 40% 1 28.03.2027 -
Seidu Basit Ashanti Gold Ativo 81 / 94 40% 4 26.03.2027 -
Thomas Agyepong Berekum Chelsea Ativo 106 / 109 40% 1 26.03.2027 -
Danyil Alefirenko Chornomorets Ativo 117 / 109 40% 1 25.03.2027 -
Mattia Finotto Carrarese Ativo 132 / 118 40% 1 25.03.2027 -
Kagiso Malinga Bidvest Wits Ativo 116 / 83 40% 1 23.03.2027 -
Giuseppe Panico Foggia Ativo 108 / 116 40% 1 22.03.2027 -
Hakeeb Adelakun Doncaster Rovers Ativo 116 / 109 40% 1 22.03.2027 -
Ekain Orobengoa Real Sociedad Ativo 103 / 109 40% 1 20.03.2027 -
Manuel Fischnaller Ravenna Ativo 103 / 96 40% 1 20.03.2027 -
Alessio Nepi Perugia Ativo 91 / 98 40% 1 17.03.2027 -
Fábio Tavares Newport County Ativo 89 / 96 40% 2 16.03.2027 -
Pietro Iemmello Catanzaro Ativo 136 / 134 40% 1 16.03.2027 -
Peter Shalulile Mamelodi Sundowns Ativo 132 / 126 40% 4 15.03.2027 -
Anatole Abang USM Alger Ativo 105 / 93 40% 1 15.03.2027 -
Mykola Haiduchyk Polissia Ativo 111 / 112 40% 1 14.03.2027 -
Osman Partey BA All Stars Ativo 82 / 99 40% 2 12.03.2027 -
Lorenzo Insigne Sampdoria Ativo 138 / 145 40% 2 11.03.2027 -
Edarlyn Reyes Arsenal Tula Ativo 103 / 100 40% 2 11.03.2027 -
Simone Rabbi Ravenna Ativo 94 / 111 40% 1 10.03.2027 -
Kwame Opoku Asante Kotoko Ativo 114 / 105 40% 1 09.03.2027 -
Will Grigg Chesterfield Ativo 103 / 100 40% 1 09.03.2027 -
Silas Nwankwo Police Union Ativo 97 / 86 40% 1 08.03.2027 -
Aaron Drinan Swindon Town Ativo 119 / 106 40% 1 08.03.2027 -
Evidence Mokoena Platinum Stars Ativo 97 / 111 40% 2 07.03.2027 -
Marcus Browne AFC Wimbledon Ativo 115 / 125 40% 2 06.03.2027 -
Yurii Klymchuk Kolos Ativo 117 / 100 40% 2 02.03.2027 -
Hlompho Modiba Black Aces Ativo 81 / 103 40% 1 02.03.2027 -
Erik Brenden Montana Ativo 92 / 98 40% 4 28.02.2027 -
Darío Poveda Nea Salamis Ativo 94 / 83 40% 1 28.02.2027 -
Samuel Julies University of Pretoria Ativo 86 / 84 40% 2 26.02.2027 -
Amos Inusah Wa All Stars Ativo 122 / 130 40% 1 25.02.2027 -
Jorge Padilla Cherno More Ativo 113 / 96 40% 1 22.02.2027 -
Alexandr Saplinov Volga Ativo 100 / 90 40% 1 22.02.2027 -
Michael Smith Mansfield Town Ativo 110 / 102 40% 1 21.02.2027 -
Themba Manyama Ajax Cape Town Ativo 115 / 94 40% 1 21.02.2027 -
Nikos Karelis Sliema Wanderers Ativo 115 / 91 40% 1 20.02.2027 -
Sam Nombe Milton Keynes Dons Ativo 110 / 101 40% 2 16.02.2027 -
Tom Bradshaw Feirense Ativo 106 / 108 40% 1 13.02.2027 -
Yeangel Montero Naxxar Lions Ativo 110 / 88 40% 1 12.02.2027 -
Papa Ndiaga Yade Oleksandriya Ativo 112 / 113 40% 1 04.02.2027 -
Damir Céter Hamrun Spartans Ativo 99 / 94 40% 1 04.02.2027 -
Vegar Eggen Hedenstad Valerenga Rejeitado 97 / 96 58% 1 01.02.2027 Rejeitar
Celso Sidney Cherno More Ativo 104 / 115 40% 1 01.02.2027 -
Carlos Paraco Metalist Rejeitado 116 / 103 40% 1 31.01.2027 Mais informações
Lebogang Zwane Black Aces Ativo 108 / 86 40% 1 13.11.2026 -
Kwadwo Appiah Hasaacas Ativo 79 / 98 40% 1 13.11.2026 -
Harry Williams Walsall Ativo 93 / 118 40% 1 11.11.2026 -
Eirik Wichne Sarpsborg 08 Ativo 105 / 106 40% 1 11.11.2026 -
Raúl Lozano Quilmes Ativo 119 / 130 40% 1 06.11.2026 -
Mandla Dala SuperSport United Ativo 123 / 109 40% 1 06.11.2026 -
Tlou Nkwe Polokwane City Ativo 105 / 90 40% 1 05.11.2026 -
Joe Bell Viking Ativo 135 / 132 40% 1 05.11.2026 -
Sander Christiansen Sarpsborg 08 Ativo 111 / 103 40% 1 04.11.2026 -
Juan Pablo De la Reta Maipú Ativo 102 / 110 40% 1 04.11.2026 -
Igor Jeličić Valerenga Ativo 112 / 97 40% 1 03.11.2026 -
Vetle Walle Egeli Sandefjord Ativo 122 / 121 40% 1 03.11.2026 -
Haret Ortega Santos Laguna Ativo 131 / 102 40% 1 06.10.2026 -
Mathias Tønnessen Tromso Ativo 112 / 110 40% 1 06.10.2026 -
Daniel Harvie Wycombe Wanderers Ativo 100 / 91 40% 1 09.09.2026 -
Leo Cornic Tromso Ativo 123 / 118 40% 1 09.09.2026 -
Sebastián Villa Boca Juniors Ativo 132 / 128 40% 1 01.08.2026 -